sensor_id;sensor_type;location;lat;lon;timestamp;P1;durP1;ratioP1;P2;durP2;ratioP2
21786;SDS011;11055;50.870;4.316;2024-03-17T00:02:18;4.88;;;3.67;;
21786;SDS011;11055;50.870;4.316;2024-03-17T00:04:46;6.38;;;4.18;;
21786;SDS011;11055;50.870;4.316;2024-03-17T00:07:12;5.80;;;3.38;;
21786;SDS011;11055;50.870;4.316;2024-03-17T00:09:38;8.27;;;4.40;;
21786;SDS011;11055;50.870;4.316;2024-03-17T00:12:05;5.97;;;4.25;;
21786;SDS011;11055;50.870;4.316;2024-03-17T00:14:31;8.25;;;4.05;;
21786;SDS011;11055;50.870;4.316;2024-03-17T00:16:57;6.00;;;4.18;;
21786;SDS011;11055;50.870;4.316;2024-03-17T00:19:25;6.15;;;3.55;;
21786;SDS011;11055;50.870;4.316;2024-03-17T00:21:51;6.72;;;4.15;;
21786;SDS011;11055;50.870;4.316;2024-03-17T00:24:17;6.18;;;3.88;;
21786;SDS011;11055;50.870;4.316;2024-03-17T00:26:44;7.22;;;4.13;;
21786;SDS011;11055;50.870;4.316;2024-03-17T00:29:10;8.13;;;4.00;;
21786;SDS011;11055;50.870;4.316;2024-03-17T00:31:36;6.70;;;4.13;;
21786;SDS011;11055;50.870;4.316;2024-03-17T00:34:02;7.95;;;4.47;;
21786;SDS011;11055;50.870;4.316;2024-03-17T00:36:29;6.93;;;3.70;;
21786;SDS011;11055;50.870;4.316;2024-03-17T00:38:55;6.82;;;4.25;;
21786;SDS011;11055;50.870;4.316;2024-03-17T00:41:21;6.60;;;4.45;;
21786;SDS011;11055;50.870;4.316;2024-03-17T00:43:47;6.90;;;4.20;;
21786;SDS011;11055;50.870;4.316;2024-03-17T00:46:13;6.82;;;4.60;;
21786;SDS011;11055;50.870;4.316;2024-03-17T00:48:38;7.05;;;4.18;;
21786;SDS011;11055;50.870;4.316;2024-03-17T00:51:04;7.43;;;4.70;;
21786;SDS011;11055;50.870;4.316;2024-03-17T00:53:30;6.68;;;4.32;;
21786;SDS011;11055;50.870;4.316;2024-03-17T00:55:56;6.05;;;4.30;;
21786;SDS011;11055;50.870;4.316;2024-03-17T00:58:26;8.88;;;4.53;;
21786;SDS011;11055;50.870;4.316;2024-03-17T01:00:52;6.13;;;4.78;;
21786;SDS011;11055;50.870;4.316;2024-03-17T01:03:17;6.47;;;4.32;;
21786;SDS011;11055;50.870;4.316;2024-03-17T01:05:44;8.20;;;4.93;;
21786;SDS011;11055;50.870;4.316;2024-03-17T01:08:12;5.32;;;4.63;;
21786;SDS011;11055;50.870;4.316;2024-03-17T01:10:39;7.68;;;4.93;;
21786;SDS011;11055;50.870;4.316;2024-03-17T01:13:06;6.45;;;4.80;;
21786;SDS011;11055;50.870;4.316;2024-03-17T01:15:32;6.88;;;4.82;;
21786;SDS011;11055;50.870;4.316;2024-03-17T01:17:58;5.47;;;4.45;;
21786;SDS011;11055;50.870;4.316;2024-03-17T01:20:25;8.38;;;5.55;;
21786;SDS011;11055;50.870;4.316;2024-03-17T01:22:51;8.15;;;5.15;;
21786;SDS011;11055;50.870;4.316;2024-03-17T01:25:16;7.35;;;4.70;;
21786;SDS011;11055;50.870;4.316;2024-03-17T01:27:42;7.68;;;5.30;;
21786;SDS011;11055;50.870;4.316;2024-03-17T01:30:08;6.13;;;4.93;;
21786;SDS011;11055;50.870;4.316;2024-03-17T01:32:35;6.70;;;5.10;;
21786;SDS011;11055;50.870;4.316;2024-03-17T01:35:04;6.78;;;4.72;;
21786;SDS011;11055;50.870;4.316;2024-03-17T01:37:31;6.88;;;5.65;;
21786;SDS011;11055;50.870;4.316;2024-03-17T01:39:57;8.43;;;4.90;;
21786;SDS011;11055;50.870;4.316;2024-03-17T01:42:23;7.15;;;4.80;;
21786;SDS011;11055;50.870;4.316;2024-03-17T01:44:49;8.35;;;5.45;;
21786;SDS011;11055;50.870;4.316;2024-03-17T01:47:16;8.23;;;5.20;;
21786;SDS011;11055;50.870;4.316;2024-03-17T01:49:44;8.65;;;5.40;;
21786;SDS011;11055;50.870;4.316;2024-03-17T01:52:14;7.47;;;5.28;;
21786;SDS011;11055;50.870;4.316;2024-03-17T01:54:41;5.72;;;4.72;;
21786;SDS011;11055;50.870;4.316;2024-03-17T01:57:08;5.82;;;5.10;;
21786;SDS011;11055;50.870;4.316;2024-03-17T01:59:34;6.32;;;4.90;;
21786;SDS011;11055;50.870;4.316;2024-03-17T02:02:00;8.88;;;5.13;;
21786;SDS011;11055;50.870;4.316;2024-03-17T02:04:26;5.10;;;4.60;;
21786;SDS011;11055;50.870;4.316;2024-03-17T02:06:52;8.48;;;5.10;;
21786;SDS011;11055;50.870;4.316;2024-03-17T02:09:17;8.00;;;5.43;;
21786;SDS011;11055;50.870;4.316;2024-03-17T02:11:43;9.15;;;5.00;;
21786;SDS011;11055;50.870;4.316;2024-03-17T02:14:09;7.75;;;5.18;;
21786;SDS011;11055;50.870;4.316;2024-03-17T02:16:36;6.28;;;5.28;;
21786;SDS011;11055;50.870;4.316;2024-03-17T02:19:01;6.82;;;5.40;;
21786;SDS011;11055;50.870;4.316;2024-03-17T02:21:27;9.50;;;5.38;;
21786;SDS011;11055;50.870;4.316;2024-03-17T02:23:53;8.15;;;5.05;;
21786;SDS011;11055;50.870;4.316;2024-03-17T02:26:19;6.70;;;5.13;;
21786;SDS011;11055;50.870;4.316;2024-03-17T02:28:46;8.55;;;5.25;;
21786;SDS011;11055;50.870;4.316;2024-03-17T02:31:13;7.07;;;5.30;;
21786;SDS011;11055;50.870;4.316;2024-03-17T02:33:40;7.35;;;5.18;;
21786;SDS011;11055;50.870;4.316;2024-03-17T02:36:07;7.07;;;4.97;;
21786;SDS011;11055;50.870;4.316;2024-03-17T02:38:33;7.45;;;4.93;;
21786;SDS011;11055;50.870;4.316;2024-03-17T02:41:17;10.02;;;5.00;;
21786;SDS011;11055;50.870;4.316;2024-03-17T02:43:43;6.85;;;4.28;;
21786;SDS011;11055;50.870;4.316;2024-03-17T02:46:13;6.82;;;5.22;;
21786;SDS011;11055;50.870;4.316;2024-03-17T02:48:40;8.90;;;5.20;;
21786;SDS011;11055;50.870;4.316;2024-03-17T02:51:12;7.38;;;4.65;;
21786;SDS011;11055;50.870;4.316;2024-03-17T02:53:40;8.38;;;4.88;;
21786;SDS011;11055;50.870;4.316;2024-03-17T02:56:07;6.80;;;4.93;;
21786;SDS011;11055;50.870;4.316;2024-03-17T02:58:35;5.75;;;4.85;;
21786;SDS011;11055;50.870;4.316;2024-03-17T03:01:02;6.65;;;5.13;;
21786;SDS011;11055;50.870;4.316;2024-03-17T03:03:34;8.02;;;4.45;;
21786;SDS011;11055;50.870;4.316;2024-03-17T03:06:00;7.20;;;5.28;;
21786;SDS011;11055;50.870;4.316;2024-03-17T03:08:29;6.97;;;5.15;;
21786;SDS011;11055;50.870;4.316;2024-03-17T03:10:58;8.90;;;4.82;;
21786;SDS011;11055;50.870;4.316;2024-03-17T03:13:24;6.55;;;5.15;;
21786;SDS011;11055;50.870;4.316;2024-03-17T03:15:50;7.20;;;4.88;;
21786;SDS011;11055;50.870;4.316;2024-03-17T03:18:16;6.93;;;4.75;;
21786;SDS011;11055;50.870;4.316;2024-03-17T03:20:42;6.85;;;4.97;;
21786;SDS011;11055;50.870;4.316;2024-03-17T03:23:08;5.72;;;4.35;;
21786;SDS011;11055;50.870;4.316;2024-03-17T03:25:34;7.65;;;4.57;;
21786;SDS011;11055;50.870;4.316;2024-03-17T03:28:00;6.32;;;4.55;;
21786;SDS011;11055;50.870;4.316;2024-03-17T03:30:27;6.93;;;5.15;;
21786;SDS011;11055;50.870;4.316;2024-03-17T03:32:52;6.88;;;4.47;;
21786;SDS011;11055;50.870;4.316;2024-03-17T03:35:18;7.05;;;4.70;;
21786;SDS011;11055;50.870;4.316;2024-03-17T03:37:44;8.20;;;4.78;;
21786;SDS011;11055;50.870;4.316;2024-03-17T03:40:10;5.25;;;4.57;;
21786;SDS011;11055;50.870;4.316;2024-03-17T03:42:45;6.95;;;4.78;;
21786;SDS011;11055;50.870;4.316;2024-03-17T03:45:12;7.55;;;4.78;;
21786;SDS011;11055;50.870;4.316;2024-03-17T03:47:42;8.13;;;5.22;;
21786;SDS011;11055;50.870;4.316;2024-03-17T03:50:09;6.97;;;4.57;;
21786;SDS011;11055;50.870;4.316;2024-03-17T03:52:38;5.03;;;4.35;;
21786;SDS011;11055;50.870;4.316;2024-03-17T03:55:05;7.10;;;4.80;;
21786;SDS011;11055;50.870;4.316;2024-03-17T03:57:32;8.13;;;4.93;;
21786;SDS011;11055;50.870;4.316;2024-03-17T04:00:01;8.52;;;4.47;;
21786;SDS011;11055;50.870;4.316;2024-03-17T04:02:37;6.35;;;4.63;;
21786;SDS011;11055;50.870;4.316;2024-03-17T04:05:09;7.28;;;4.75;;
21786;SDS011;11055;50.870;4.316;2024-03-17T04:07:36;7.47;;;4.68;;
21786;SDS011;11055;50.870;4.316;2024-03-17T04:10:02;5.53;;;4.43;;
21786;SDS011;11055;50.870;4.316;2024-03-17T04:12:28;8.75;;;4.25;;
21786;SDS011;11055;50.870;4.316;2024-03-17T04:14:57;6.28;;;4.63;;
21786;SDS011;11055;50.870;4.316;2024-03-17T04:17:24;7.35;;;4.80;;
21786;SDS011;11055;50.870;4.316;2024-03-17T04:19:51;6.60;;;4.82;;
21786;SDS011;11055;50.870;4.316;2024-03-17T04:22:18;8.20;;;5.28;;
21786;SDS011;11055;50.870;4.316;2024-03-17T04:24:45;6.25;;;4.88;;
21786;SDS011;11055;50.870;4.316;2024-03-17T04:27:11;6.93;;;4.50;;
21786;SDS011;11055;50.870;4.316;2024-03-17T04:29:38;7.80;;;4.57;;
21786;SDS011;11055;50.870;4.316;2024-03-17T04:32:04;8.50;;;5.05;;
21786;SDS011;11055;50.870;4.316;2024-03-17T04:34:30;7.70;;;4.47;;
21786;SDS011;11055;50.870;4.316;2024-03-17T04:36:57;9.45;;;4.78;;
21786;SDS011;11055;50.870;4.316;2024-03-17T04:39:23;6.28;;;4.72;;
21786;SDS011;11055;50.870;4.316;2024-03-17T04:41:50;7.03;;;4.80;;
21786;SDS011;11055;50.870;4.316;2024-03-17T04:44:16;6.20;;;4.68;;
21786;SDS011;11055;50.870;4.316;2024-03-17T04:46:42;6.65;;;4.75;;
21786;SDS011;11055;50.870;4.316;2024-03-17T04:49:08;5.57;;;4.90;;
21786;SDS011;11055;50.870;4.316;2024-03-17T04:51:34;7.53;;;5.00;;
21786;SDS011;11055;50.870;4.316;2024-03-17T04:54:00;6.65;;;5.03;;
21786;SDS011;11055;50.870;4.316;2024-03-17T04:56:28;7.10;;;5.00;;
21786;SDS011;11055;50.870;4.316;2024-03-17T04:58:53;7.28;;;4.78;;
21786;SDS011;11055;50.870;4.316;2024-03-17T05:01:19;8.18;;;5.18;;
21786;SDS011;11055;50.870;4.316;2024-03-17T05:03:45;7.35;;;4.97;;
21786;SDS011;11055;50.870;4.316;2024-03-17T05:06:10;7.97;;;5.03;;
21786;SDS011;11055;50.870;4.316;2024-03-17T05:08:36;10.02;;;5.60;;
21786;SDS011;11055;50.870;4.316;2024-03-17T05:11:03;7.10;;;5.10;;
21786;SDS011;11055;50.870;4.316;2024-03-17T05:13:30;6.43;;;5.35;;
21786;SDS011;11055;50.870;4.316;2024-03-17T05:15:56;6.10;;;4.95;;
21786;SDS011;11055;50.870;4.316;2024-03-17T05:18:22;7.80;;;5.10;;
21786;SDS011;11055;50.870;4.316;2024-03-17T05:21:00;5.28;;;4.60;;
21786;SDS011;11055;50.870;4.316;2024-03-17T05:23:27;9.00;;;5.10;;
21786;SDS011;11055;50.870;4.316;2024-03-17T05:25:53;7.10;;;5.40;;
21786;SDS011;11055;50.870;4.316;2024-03-17T05:28:20;6.85;;;5.15;;
21786;SDS011;11055;50.870;4.316;2024-03-17T05:30:46;6.45;;;5.00;;
21786;SDS011;11055;50.870;4.316;2024-03-17T05:33:13;7.35;;;5.10;;
21786;SDS011;11055;50.870;4.316;2024-03-17T05:35:39;6.25;;;5.03;;
21786;SDS011;11055;50.870;4.316;2024-03-17T05:38:04;9.85;;;5.38;;
21786;SDS011;11055;50.870;4.316;2024-03-17T05:40:30;10.07;;;5.60;;
21786;SDS011;11055;50.870;4.316;2024-03-17T05:42:56;8.10;;;5.13;;
21786;SDS011;11055;50.870;4.316;2024-03-17T05:45:22;9.05;;;5.05;;
21786;SDS011;11055;50.870;4.316;2024-03-17T05:47:49;6.78;;;5.07;;
21786;SDS011;11055;50.870;4.316;2024-03-17T05:50:15;7.22;;;5.10;;
21786;SDS011;11055;50.870;4.316;2024-03-17T05:52:41;7.03;;;5.35;;
21786;SDS011;11055;50.870;4.316;2024-03-17T05:55:07;6.30;;;4.78;;
21786;SDS011;11055;50.870;4.316;2024-03-17T05:57:32;8.02;;;5.10;;
21786;SDS011;11055;50.870;4.316;2024-03-17T05:59:58;8.00;;;4.80;;
21786;SDS011;11055;50.870;4.316;2024-03-17T06:02:24;7.60;;;5.20;;
21786;SDS011;11055;50.870;4.316;2024-03-17T06:04:49;6.53;;;5.07;;
21786;SDS011;11055;50.870;4.316;2024-03-17T06:07:15;6.25;;;4.55;;
21786;SDS011;11055;50.870;4.316;2024-03-17T06:09:40;9.27;;;4.90;;
21786;SDS011;11055;50.870;4.316;2024-03-17T06:12:06;8.52;;;4.97;;
21786;SDS011;11055;50.870;4.316;2024-03-17T06:14:32;7.68;;;4.97;;
21786;SDS011;11055;50.870;4.316;2024-03-17T06:16:59;7.75;;;4.75;;
21786;SDS011;11055;50.870;4.316;2024-03-17T06:19:25;5.43;;;4.47;;
21786;SDS011;11055;50.870;4.316;2024-03-17T06:21:50;9.80;;;5.00;;
21786;SDS011;11055;50.870;4.316;2024-03-17T06:24:16;8.60;;;4.65;;
21786;SDS011;11055;50.870;4.316;2024-03-17T06:26:42;5.25;;;4.45;;
21786;SDS011;11055;50.870;4.316;2024-03-17T06:29:07;5.85;;;4.53;;
21786;SDS011;11055;50.870;4.316;2024-03-17T06:31:33;7.80;;;5.07;;
21786;SDS011;11055;50.870;4.316;2024-03-17T06:33:59;7.97;;;4.43;;
21786;SDS011;11055;50.870;4.316;2024-03-17T06:36:24;6.75;;;4.47;;
21786;SDS011;11055;50.870;4.316;2024-03-17T06:38:50;5.25;;;3.80;;
21786;SDS011;11055;50.870;4.316;2024-03-17T06:41:16;5.28;;;4.50;;
21786;SDS011;11055;50.870;4.316;2024-03-17T06:43:42;6.05;;;4.43;;
21786;SDS011;11055;50.870;4.316;2024-03-17T06:46:08;6.72;;;4.53;;
21786;SDS011;11055;50.870;4.316;2024-03-17T06:48:34;6.85;;;4.43;;
21786;SDS011;11055;50.870;4.316;2024-03-17T06:51:00;7.00;;;4.70;;
21786;SDS011;11055;50.870;4.316;2024-03-17T06:53:26;6.40;;;4.88;;
21786;SDS011;11055;50.870;4.316;2024-03-17T06:55:52;5.95;;;4.28;;
21786;SDS011;11055;50.870;4.316;2024-03-17T06:58:19;7.60;;;5.00;;
21786;SDS011;11055;50.870;4.316;2024-03-17T07:03:19;7.85;;;4.60;;
21786;SDS011;11055;50.870;4.316;2024-03-17T07:05:51;11.68;;;5.13;;
21786;SDS011;11055;50.870;4.316;2024-03-17T07:08:18;5.93;;;4.90;;
21786;SDS011;11055;50.870;4.316;2024-03-17T07:10:54;6.60;;;4.47;;
21786;SDS011;11055;50.870;4.316;2024-03-17T07:13:33;8.48;;;4.75;;
21786;SDS011;11055;50.870;4.316;2024-03-17T07:16:01;7.97;;;5.03;;
21786;SDS011;11055;50.870;4.316;2024-03-17T07:18:31;6.78;;;4.43;;
21786;SDS011;11055;50.870;4.316;2024-03-17T07:20:57;7.53;;;4.80;;
21786;SDS011;11055;50.870;4.316;2024-03-17T07:23:30;9.80;;;5.07;;
21786;SDS011;11055;50.870;4.316;2024-03-17T07:25:56;7.18;;;4.80;;
21786;SDS011;11055;50.870;4.316;2024-03-17T07:28:26;6.82;;;4.75;;
21786;SDS011;11055;50.870;4.316;2024-03-17T07:30:55;7.55;;;4.80;;
21786;SDS011;11055;50.870;4.316;2024-03-17T07:33:22;8.60;;;4.47;;
21786;SDS011;11055;50.870;4.316;2024-03-17T07:35:49;8.98;;;5.05;;
21786;SDS011;11055;50.870;4.316;2024-03-17T07:40:54;9.18;;;4.57;;
21786;SDS011;11055;50.870;4.316;2024-03-17T07:43:27;8.15;;;4.85;;
21786;SDS011;11055;50.870;4.316;2024-03-17T07:48:24;7.30;;;4.85;;
21786;SDS011;11055;50.870;4.316;2024-03-17T07:51:02;7.20;;;4.65;;
21786;SDS011;11055;50.870;4.316;2024-03-17T07:53:30;8.18;;;4.45;;
21786;SDS011;11055;50.870;4.316;2024-03-17T07:56:00;5.45;;;4.07;;
21786;SDS011;11055;50.870;4.316;2024-03-17T07:58:35;5.82;;;4.43;;
21786;SDS011;11055;50.870;4.316;2024-03-17T08:01:03;7.75;;;4.63;;
21786;SDS011;11055;50.870;4.316;2024-03-17T08:03:31;6.72;;;4.43;;
21786;SDS011;11055;50.870;4.316;2024-03-17T08:05:57;6.28;;;4.38;;
21786;SDS011;11055;50.870;4.316;2024-03-17T08:08:25;5.55;;;4.30;;
21786;SDS011;11055;50.870;4.316;2024-03-17T08:10:51;5.88;;;4.15;;
21786;SDS011;11055;50.870;4.316;2024-03-17T08:13:18;5.65;;;4.20;;
21786;SDS011;11055;50.870;4.316;2024-03-17T08:15:44;5.75;;;4.13;;
21786;SDS011;11055;50.870;4.316;2024-03-17T08:18:11;6.55;;;4.25;;
21786;SDS011;11055;50.870;4.316;2024-03-17T08:20:41;9.07;;;4.38;;
21786;SDS011;11055;50.870;4.316;2024-03-17T08:23:08;7.07;;;4.03;;
21786;SDS011;11055;50.870;4.316;2024-03-17T08:25:36;5.97;;;3.90;;
21786;SDS011;11055;50.870;4.316;2024-03-17T08:28:02;8.13;;;3.92;;
21786;SDS011;11055;50.870;4.316;2024-03-17T08:30:28;7.28;;;4.20;;
21786;SDS011;11055;50.870;4.316;2024-03-17T08:32:57;6.00;;;4.25;;
21786;SDS011;11055;50.870;4.316;2024-03-17T08:35:23;5.93;;;3.90;;
21786;SDS011;11055;50.870;4.316;2024-03-17T08:37:49;8.02;;;4.07;;
21786;SDS011;11055;50.870;4.316;2024-03-17T08:40:21;5.93;;;4.22;;
21786;SDS011;11055;50.870;4.316;2024-03-17T08:42:50;6.60;;;3.70;;
21786;SDS011;11055;50.870;4.316;2024-03-17T08:45:16;6.68;;;3.97;;
21786;SDS011;11055;50.870;4.316;2024-03-17T08:47:42;6.65;;;3.90;;
21786;SDS011;11055;50.870;4.316;2024-03-17T08:50:08;9.25;;;4.68;;
21786;SDS011;11055;50.870;4.316;2024-03-17T08:52:34;9.10;;;4.03;;
21786;SDS011;11055;50.870;4.316;2024-03-17T08:55:00;7.07;;;4.07;;
21786;SDS011;11055;50.870;4.316;2024-03-17T08:57:28;8.50;;;4.25;;
21786;SDS011;11055;50.870;4.316;2024-03-17T08:59:54;5.68;;;3.78;;
21786;SDS011;11055;50.870;4.316;2024-03-17T09:02:20;6.25;;;3.75;;
21786;SDS011;11055;50.870;4.316;2024-03-17T09:04:48;5.50;;;4.07;;
21786;SDS011;11055;50.870;4.316;2024-03-17T09:07:14;5.10;;;3.85;;
21786;SDS011;11055;50.870;4.316;2024-03-17T09:09:43;7.75;;;3.60;;
21786;SDS011;11055;50.870;4.316;2024-03-17T09:12:09;4.20;;;3.67;;
21786;SDS011;11055;50.870;4.316;2024-03-17T09:14:34;6.03;;;3.95;;
21786;SDS011;11055;50.870;4.316;2024-03-17T09:17:00;4.43;;;3.80;;
21786;SDS011;11055;50.870;4.316;2024-03-17T09:19:26;6.63;;;4.00;;
21786;SDS011;11055;50.870;4.316;2024-03-17T09:21:54;9.77;;;4.38;;
21786;SDS011;11055;50.870;4.316;2024-03-17T09:24:20;6.38;;;3.80;;
21786;SDS011;11055;50.870;4.316;2024-03-17T09:26:45;8.00;;;4.28;;
21786;SDS011;11055;50.870;4.316;2024-03-17T09:29:12;6.40;;;3.83;;
21786;SDS011;11055;50.870;4.316;2024-03-17T09:31:40;7.65;;;4.05;;
21786;SDS011;11055;50.870;4.316;2024-03-17T09:34:06;6.75;;;3.70;;
21786;SDS011;11055;50.870;4.316;2024-03-17T09:36:32;7.90;;;3.67;;
21786;SDS011;11055;50.870;4.316;2024-03-17T09:38:58;5.68;;;3.38;;
21786;SDS011;11055;50.870;4.316;2024-03-17T09:41:26;6.60;;;3.75;;
21786;SDS011;11055;50.870;4.316;2024-03-17T09:43:54;7.15;;;3.25;;
21786;SDS011;11055;50.870;4.316;2024-03-17T09:46:22;6.60;;;3.25;;
21786;SDS011;11055;50.870;4.316;2024-03-17T09:48:48;5.10;;;3.67;;
21786;SDS011;11055;50.870;4.316;2024-03-17T09:51:19;6.72;;;3.95;;
21786;SDS011;11055;50.870;4.316;2024-03-17T09:53:49;4.75;;;3.50;;
21786;SDS011;11055;50.870;4.316;2024-03-17T09:56:18;6.88;;;3.10;;
21786;SDS011;11055;50.870;4.316;2024-03-17T09:58:49;7.03;;;3.40;;
21786;SDS011;11055;50.870;4.316;2024-03-17T10:03:43;5.38;;;3.17;;
21786;SDS011;11055;50.870;4.316;2024-03-17T10:06:29;6.65;;;3.10;;
21786;SDS011;11055;50.870;4.316;2024-03-17T10:08:59;7.65;;;3.55;;
21786;SDS011;11055;50.870;4.316;2024-03-17T10:11:35;4.55;;;2.80;;
21786;SDS011;11055;50.870;4.316;2024-03-17T10:14:05;5.03;;;2.85;;
21786;SDS011;11055;50.870;4.316;2024-03-17T10:16:33;6.78;;;2.92;;
21786;SDS011;11055;50.870;4.316;2024-03-17T10:19:20;4.88;;;3.08;;
21786;SDS011;11055;50.870;4.316;2024-03-17T10:21:48;5.97;;;3.08;;
21786;SDS011;11055;50.870;4.316;2024-03-17T10:24:18;8.10;;;3.03;;
21786;SDS011;11055;50.870;4.316;2024-03-17T10:26:49;3.92;;;3.28;;
21786;SDS011;11055;50.870;4.316;2024-03-17T10:29:49;5.55;;;3.35;;
21786;SDS011;11055;50.870;4.316;2024-03-17T10:34:38;5.85;;;3.20;;
21786;SDS011;11055;50.870;4.316;2024-03-17T10:37:17;6.70;;;2.53;;
21786;SDS011;11055;50.870;4.316;2024-03-17T10:39:52;6.68;;;3.22;;
21786;SDS011;11055;50.870;4.316;2024-03-17T10:42:24;7.05;;;2.83;;
21786;SDS011;11055;50.870;4.316;2024-03-17T10:44:56;6.88;;;2.92;;
21786;SDS011;11055;50.870;4.316;2024-03-17T10:47:24;8.27;;;2.70;;
21786;SDS011;11055;50.870;4.316;2024-03-17T10:49:51;7.32;;;2.97;;
21786;SDS011;11055;50.870;4.316;2024-03-17T10:52:19;6.85;;;2.95;;
21786;SDS011;11055;50.870;4.316;2024-03-17T10:54:51;4.90;;;2.78;;
21786;SDS011;11055;50.870;4.316;2024-03-17T10:59:50;5.55;;;3.13;;
21786;SDS011;11055;50.870;4.316;2024-03-17T11:02:21;8.00;;;3.15;;
21786;SDS011;11055;50.870;4.316;2024-03-17T11:04:50;6.53;;;3.00;;
21786;SDS011;11055;50.870;4.316;2024-03-17T11:07:17;10.30;;;3.35;;
21786;SDS011;11055;50.870;4.316;2024-03-17T11:09:44;8.90;;;3.08;;
21786;SDS011;11055;50.870;4.316;2024-03-17T11:20:39;3.85;;;2.50;;
21786;SDS011;11055;50.870;4.316;2024-03-17T11:23:05;6.25;;;2.80;;
21786;SDS011;11055;50.870;4.316;2024-03-17T11:28:00;6.63;;;3.20;;
21786;SDS011;11055;50.870;4.316;2024-03-17T11:30:43;7.07;;;2.80;;
21786;SDS011;11055;50.870;4.316;2024-03-17T11:38:57;7.18;;;2.10;;
21786;SDS011;11055;50.870;4.316;2024-03-17T11:44:14;6.93;;;2.25;;
21786;SDS011;11055;50.870;4.316;2024-03-17T11:47:07;5.03;;;2.30;;
21786;SDS011;11055;50.870;4.316;2024-03-17T11:49:34;4.60;;;2.00;;
21786;SDS011;11055;50.870;4.316;2024-03-17T11:52:05;6.00;;;2.22;;
21786;SDS011;11055;50.870;4.316;2024-03-17T11:54:41;7.45;;;2.50;;
21786;SDS011;11055;50.870;4.316;2024-03-17T11:59:34;4.95;;;2.13;;
21786;SDS011;11055;50.870;4.316;2024-03-17T12:02:02;6.53;;;2.22;;
21786;SDS011;11055;50.870;4.316;2024-03-17T12:04:28;4.85;;;2.28;;
21786;SDS011;11055;50.870;4.316;2024-03-17T12:06:55;5.55;;;2.10;;
21786;SDS011;11055;50.870;4.316;2024-03-17T12:09:26;4.22;;;2.15;;
21786;SDS011;11055;50.870;4.316;2024-03-17T12:14:24;3.95;;;1.55;;
21786;SDS011;11055;50.870;4.316;2024-03-17T12:16:54;6.97;;;2.35;;
21786;SDS011;11055;50.870;4.316;2024-03-17T12:19:21;4.63;;;1.83;;
21786;SDS011;11055;50.870;4.316;2024-03-17T12:21:49;4.20;;;2.35;;
21786;SDS011;11055;50.870;4.316;2024-03-17T12:24:21;5.38;;;2.22;;
21786;SDS011;11055;50.870;4.316;2024-03-17T12:26:51;5.75;;;1.95;;
21786;SDS011;11055;50.870;4.316;2024-03-17T12:29:34;4.13;;;2.00;;
21786;SDS011;11055;50.870;4.316;2024-03-17T12:32:04;4.97;;;2.20;;
21786;SDS011;11055;50.870;4.316;2024-03-17T12:34:31;6.27;;;2.10;;
21786;SDS011;11055;50.870;4.316;2024-03-17T12:36:59;6.38;;;2.35;;
21786;SDS011;11055;50.870;4.316;2024-03-17T12:39:26;4.55;;;2.25;;
21786;SDS011;11055;50.870;4.316;2024-03-17T12:44:29;5.53;;;1.77;;
21786;SDS011;11055;50.870;4.316;2024-03-17T12:46:57;3.38;;;1.63;;
21786;SDS011;11055;50.870;4.316;2024-03-17T12:49:25;6.95;;;2.33;;
21786;SDS011;11055;50.870;4.316;2024-03-17T12:51:52;3.72;;;1.67;;
21786;SDS011;11055;50.870;4.316;2024-03-17T12:54:19;8.00;;;2.00;;
21786;SDS011;11055;50.870;4.316;2024-03-17T12:56:46;6.50;;;1.98;;
21786;SDS011;11055;50.870;4.316;2024-03-17T12:59:37;6.18;;;2.28;;
21786;SDS011;11055;50.870;4.316;2024-03-17T13:02:22;3.70;;;1.67;;
21786;SDS011;11055;50.870;4.316;2024-03-17T13:07:32;4.53;;;1.63;;
21786;SDS011;11055;50.870;4.316;2024-03-17T13:09:58;4.40;;;1.45;;
21786;SDS011;11055;50.870;4.316;2024-03-17T13:12:23;5.03;;;1.63;;
21786;SDS011;11055;50.870;4.316;2024-03-17T13:14:49;6.03;;;2.15;;
21786;SDS011;11055;50.870;4.316;2024-03-17T13:17:15;5.40;;;1.50;;
21786;SDS011;11055;50.870;4.316;2024-03-17T13:19:45;6.05;;;2.10;;
21786;SDS011;11055;50.870;4.316;2024-03-17T13:22:11;5.72;;;1.88;;
21786;SDS011;11055;50.870;4.316;2024-03-17T13:24:37;4.40;;;1.50;;
21786;SDS011;11055;50.870;4.316;2024-03-17T13:27:03;5.75;;;1.95;;
21786;SDS011;11055;50.870;4.316;2024-03-17T13:29:31;3.78;;;1.50;;
21786;SDS011;11055;50.870;4.316;2024-03-17T13:32:03;6.00;;;1.85;;
21786;SDS011;11055;50.870;4.316;2024-03-17T13:34:30;4.35;;;1.67;;
21786;SDS011;11055;50.870;4.316;2024-03-17T13:36:55;6.10;;;2.05;;
21786;SDS011;11055;50.870;4.316;2024-03-17T13:39:22;5.70;;;2.08;;
21786;SDS011;11055;50.870;4.316;2024-03-17T13:41:49;4.05;;;1.30;;
21786;SDS011;11055;50.870;4.316;2024-03-17T13:44:16;6.78;;;1.92;;
21786;SDS011;11055;50.870;4.316;2024-03-17T13:46:42;8.70;;;2.10;;
21786;SDS011;11055;50.870;4.316;2024-03-17T13:49:07;5.38;;;1.70;;
21786;SDS011;11055;50.870;4.316;2024-03-17T13:51:33;6.00;;;2.00;;
21786;SDS011;11055;50.870;4.316;2024-03-17T13:53:59;6.30;;;1.90;;
21786;SDS011;11055;50.870;4.316;2024-03-17T13:56:25;6.05;;;1.50;;
21786;SDS011;11055;50.870;4.316;2024-03-17T13:58:51;4.78;;;1.63;;
21786;SDS011;11055;50.870;4.316;2024-03-17T14:01:17;3.25;;;1.60;;
21786;SDS011;11055;50.870;4.316;2024-03-17T14:03:43;4.15;;;1.80;;
21786;SDS011;11055;50.870;4.316;2024-03-17T14:06:09;3.65;;;1.65;;
21786;SDS011;11055;50.870;4.316;2024-03-17T14:08:34;3.60;;;1.42;;
21786;SDS011;11055;50.870;4.316;2024-03-17T14:11:00;4.97;;;1.75;;
21786;SDS011;11055;50.870;4.316;2024-03-17T14:13:26;6.93;;;1.58;;
21786;SDS011;11055;50.870;4.316;2024-03-17T14:15:55;7.47;;;2.05;;
21786;SDS011;11055;50.870;4.316;2024-03-17T14:18:21;4.70;;;1.50;;
21786;SDS011;11055;50.870;4.316;2024-03-17T14:20:47;3.33;;;1.60;;
21786;SDS011;11055;50.870;4.316;2024-03-17T14:23:13;4.45;;;1.73;;
21786;SDS011;11055;50.870;4.316;2024-03-17T14:25:38;6.68;;;1.73;;
21786;SDS011;11055;50.870;4.316;2024-03-17T14:28:07;5.00;;;1.55;;
21786;SDS011;11055;50.870;4.316;2024-03-17T14:30:32;7.22;;;2.00;;
21786;SDS011;11055;50.870;4.316;2024-03-17T14:32:58;2.97;;;1.50;;
21786;SDS011;11055;50.870;4.316;2024-03-17T14:35:24;3.25;;;1.20;;
21786;SDS011;11055;50.870;4.316;2024-03-17T14:37:52;2.83;;;1.42;;
21786;SDS011;11055;50.870;4.316;2024-03-17T14:40:18;6.93;;;1.85;;
21786;SDS011;11055;50.870;4.316;2024-03-17T14:42:53;5.03;;;1.35;;
21786;SDS011;11055;50.870;4.316;2024-03-17T14:45:22;5.85;;;1.67;;
21786;SDS011;11055;50.870;4.316;2024-03-17T14:47:51;3.75;;;1.83;;
21786;SDS011;11055;50.870;4.316;2024-03-17T14:50:19;5.65;;;1.73;;
21786;SDS011;11055;50.870;4.316;2024-03-17T14:52:45;4.88;;;1.80;;
21786;SDS011;11055;50.870;4.316;2024-03-17T14:55:11;5.80;;;2.00;;
21786;SDS011;11055;50.870;4.316;2024-03-17T14:57:38;3.70;;;1.70;;
21786;SDS011;11055;50.870;4.316;2024-03-17T15:00:05;5.57;;;2.00;;
21786;SDS011;11055;50.870;4.316;2024-03-17T15:02:42;3.58;;;1.48;;
21786;SDS011;11055;50.870;4.316;2024-03-17T15:05:12;5.40;;;1.60;;
21786;SDS011;11055;50.870;4.316;2024-03-17T15:07:39;3.80;;;1.30;;
21786;SDS011;11055;50.870;4.316;2024-03-17T15:10:05;5.97;;;1.70;;
21786;SDS011;11055;50.870;4.316;2024-03-17T15:12:32;5.10;;;1.60;;
21786;SDS011;11055;50.870;4.316;2024-03-17T15:14:58;6.95;;;1.42;;
21786;SDS011;11055;50.870;4.316;2024-03-17T15:17:23;2.78;;;1.38;;
21786;SDS011;11055;50.870;4.316;2024-03-17T15:19:49;5.40;;;1.42;;
21786;SDS011;11055;50.870;4.316;2024-03-17T15:22:14;5.35;;;1.42;;
21786;SDS011;11055;50.870;4.316;2024-03-17T15:24:40;5.35;;;1.45;;
21786;SDS011;11055;50.870;4.316;2024-03-17T15:27:06;4.43;;;1.70;;
21786;SDS011;11055;50.870;4.316;2024-03-17T15:29:32;4.30;;;1.63;;
21786;SDS011;11055;50.870;4.316;2024-03-17T15:31:57;4.28;;;1.88;;
21786;SDS011;11055;50.870;4.316;2024-03-17T15:34:23;5.03;;;2.10;;
21786;SDS011;11055;50.870;4.316;2024-03-17T15:36:49;5.43;;;1.80;;